createdAt,value
2024-04-03T00:00:30.946Z,0
2024-04-03T00:01:31.065Z,0
2024-04-03T00:02:31.206Z,0
2024-04-03T00:03:31.356Z,0
2024-04-03T00:04:31.523Z,0
2024-04-03T00:05:31.676Z,0
2024-04-03T00:06:31.840Z,0
2024-04-03T00:07:31.966Z,0
2024-04-03T00:08:32.133Z,0
2024-04-03T00:09:32.222Z,0
2024-04-03T00:10:34.693Z,0
2024-04-03T00:11:32.535Z,0
2024-04-03T00:12:32.712Z,0
2024-04-03T00:13:32.843Z,0
2024-04-03T00:14:32.991Z,0
2024-04-03T00:15:33.134Z,0
2024-04-03T00:16:33.286Z,0
2024-04-03T00:17:33.463Z,0
2024-04-03T00:18:33.584Z,0
2024-04-03T00:19:33.762Z,0
2024-04-03T00:20:33.910Z,0
2024-04-03T00:21:34.054Z,0
2024-04-03T00:22:34.207Z,0
2024-04-03T00:23:34.345Z,0
2024-04-03T00:24:34.507Z,0
2024-04-03T00:25:34.648Z,0
2024-04-03T00:26:34.838Z,0
2024-04-03T00:27:34.989Z,0
2024-04-03T00:28:35.114Z,0
2024-04-03T00:29:35.214Z,0
2024-04-03T00:30:35.362Z,0
2024-04-03T00:31:35.513Z,0
2024-04-03T00:32:35.663Z,0
2024-04-03T00:33:35.820Z,0
2024-04-03T00:34:35.956Z,0
2024-04-03T00:35:36.117Z,0
2024-04-03T00:36:36.272Z,0
2024-04-03T00:37:36.464Z,0
2024-04-03T00:38:36.573Z,0
2024-04-03T00:39:36.731Z,0
2024-04-03T00:40:36.868Z,0
2024-04-03T00:41:37.024Z,0
2024-04-03T00:42:37.197Z,0
2024-04-03T00:43:37.322Z,0
2024-04-03T00:44:37.475Z,0
2024-04-03T00:45:37.642Z,0
2024-04-03T00:46:37.789Z,0
2024-04-03T00:47:37.932Z,0
2024-04-03T00:48:38.104Z,0
2024-04-03T00:49:38.237Z,0
2024-04-03T00:50:38.397Z,0
2024-04-03T00:51:38.500Z,0
2024-04-03T00:52:38.642Z,0
2024-04-03T00:53:38.807Z,0
2024-04-03T00:54:38.970Z,0
2024-04-03T00:55:39.105Z,0
2024-04-03T00:56:39.261Z,0
2024-04-03T00:57:40.593Z,0
2024-04-03T00:59:40.421Z,0
2024-04-03T01:01:39.952Z,0
2024-04-03T01:02:40.116Z,0
2024-04-03T01:03:40.260Z,0
2024-04-03T01:04:40.418Z,0
2024-04-03T01:05:40.553Z,0
2024-04-03T01:06:40.691Z,0
2024-04-03T01:07:40.818Z,0
2024-04-03T01:08:40.979Z,0
2024-04-03T01:09:41.123Z,0
2024-04-03T01:10:41.282Z,0
2024-04-03T01:11:41.428Z,0
2024-04-03T01:12:41.585Z,0
2024-04-03T01:13:41.733Z,0
2024-04-03T01:14:41.924Z,0
2024-04-03T01:15:42.027Z,0
2024-04-03T01:16:42.173Z,0
2024-04-03T01:17:42.342Z,0
2024-04-03T01:18:42.484Z,0
2024-04-03T01:19:42.632Z,0
2024-04-03T01:20:42.794Z,0
2024-04-03T01:21:42.939Z,0
2024-04-03T01:22:43.081Z,0
2024-04-03T01:23:43.253Z,0
2024-04-03T01:24:43.398Z,0
2024-04-03T01:25:51.394Z,0
2024-04-03T01:26:43.706Z,0
2024-04-03T01:27:43.855Z,0
2024-04-03T01:28:43.997Z,0
2024-04-03T01:29:44.154Z,0
2024-04-03T01:30:44.319Z,0
2024-04-03T01:31:44.467Z,0
2024-04-03T01:32:44.617Z,0
2024-04-03T01:33:44.719Z,0
2024-04-03T01:34:44.859Z,0
2024-04-03T01:35:45.030Z,0
2024-04-03T01:36:45.166Z,0
2024-04-03T01:37:45.345Z,0
2024-04-03T01:38:45.474Z,0
2024-04-03T01:39:45.636Z,0
2024-04-03T01:40:45.767Z,0
2024-04-03T01:41:45.927Z,0
2024-04-03T01:42:46.074Z,0
2024-04-03T01:43:46.227Z,0
2024-04-03T01:44:46.379Z,0
2024-04-03T01:45:46.544Z,0
2024-04-03T01:46:46.684Z,0
2024-04-03T01:47:46.834Z,0
2024-04-03T01:48:47.089Z,0
2024-04-03T01:49:47.155Z,0
2024-04-03T01:50:47.311Z,0
2024-04-03T01:51:47.449Z,0
2024-04-03T01:52:47.580Z,0
2024-04-03T01:53:47.737Z,0
2024-04-03T01:54:47.888Z,0
2024-04-03T01:55:48.046Z,0
2024-04-03T01:56:48.194Z,0
2024-04-03T01:57:48.348Z,0
2024-04-03T01:58:48.494Z,0
2024-04-03T01:59:48.656Z,0
2024-04-03T02:00:48.812Z,0
2024-04-03T02:01:48.957Z,0
2024-04-03T02:02:49.105Z,0
2024-04-03T02:03:49.266Z,0
2024-04-03T02:04:49.409Z,0
2024-04-03T02:05:49.565Z,0
2024-04-03T02:06:49.720Z,0
2024-04-03T02:07:49.869Z,0
2024-04-03T02:08:50.031Z,0
2024-04-03T02:09:50.170Z,0
2024-04-03T02:10:50.318Z,0
2024-04-03T02:11:50.442Z,0
2024-04-03T02:12:50.588Z,0
2024-04-03T02:13:50.724Z,0
2024-04-03T02:14:50.885Z,0
2024-04-03T02:15:51.028Z,0
2024-04-03T02:16:51.179Z,0
2024-04-03T02:17:51.344Z,0
2024-04-03T02:18:51.493Z,0
2024-04-03T02:19:51.651Z,0
2024-04-03T02:20:51.790Z,0
2024-04-03T02:21:51.894Z,0
2024-04-03T02:22:52.039Z,0
2024-04-03T02:23:52.257Z,0
2024-04-03T02:24:52.357Z,0
2024-04-03T02:25:52.494Z,0
2024-04-03T02:26:52.638Z,0
2024-04-03T02:27:52.752Z,0
2024-04-03T02:28:52.899Z,0
2024-04-03T02:29:53.088Z,0
2024-04-03T02:30:53.212Z,0
2024-04-03T02:31:53.357Z,0
2024-04-03T02:32:53.498Z,0
2024-04-03T02:33:53.678Z,0
2024-04-03T02:34:53.819Z,0
2024-04-03T02:35:53.961Z,0
2024-04-03T02:36:54.112Z,0
2024-04-03T02:37:54.275Z,0
2024-04-03T02:38:54.420Z,0
2024-04-03T02:39:54.567Z,0
2024-04-03T02:40:54.725Z,0
2024-04-03T02:41:54.877Z,0
2024-04-03T02:42:55.025Z,0
2024-04-03T02:43:55.169Z,0
2024-04-03T02:44:55.336Z,0
2024-04-03T02:45:55.488Z,0
2024-04-03T02:46:55.632Z,0
2024-04-03T02:47:55.773Z,0
2024-04-03T02:48:55.955Z,0
2024-04-03T02:49:56.081Z,0
2024-04-03T02:50:56.328Z,0
2024-04-03T02:51:56.401Z,0
2024-04-03T02:52:56.502Z,0
2024-04-03T02:53:56.646Z,0
2024-04-03T02:54:56.795Z,0
2024-04-03T02:55:56.949Z,0
2024-04-03T02:56:57.092Z,0
2024-04-03T02:57:57.253Z,0
2024-04-03T02:58:57.412Z,0
2024-04-03T02:59:57.552Z,0
2024-04-03T03:00:57.702Z,0
2024-04-03T03:01:57.865Z,0
2024-04-03T03:02:58.006Z,0
2024-04-03T03:03:58.184Z,0
2024-04-03T03:04:58.308Z,0
2024-04-03T03:05:58.463Z,0
2024-04-03T03:06:58.686Z,0
2024-04-03T03:07:58.774Z,0
2024-04-03T03:08:58.919Z,0
2024-04-03T03:09:59.068Z,0
2024-04-03T03:10:59.226Z,0
2024-04-03T03:11:59.384Z,0
2024-04-03T03:12:59.536Z,0
2024-04-03T03:13:59.670Z,0
2024-04-03T03:14:59.833Z,0
2024-04-03T03:15:59.993Z,0
2024-04-03T03:17:00.140Z,0
2024-04-03T03:18:00.326Z,0
2024-04-03T03:19:00.428Z,0
2024-04-03T03:20:00.585Z,0
2024-04-03T03:21:00.741Z,0
2024-04-03T03:22:00.910Z,0
2024-04-03T03:23:01.047Z,0
2024-04-03T03:24:01.189Z,0
2024-04-03T03:25:01.338Z,0
2024-04-03T03:26:01.486Z,0
2024-04-03T03:27:01.659Z,0
2024-04-03T03:28:01.798Z,0
2024-04-03T03:29:01.955Z,0
2024-04-03T03:30:02.138Z,0
2024-04-03T03:31:02.255Z,0
2024-04-03T03:32:02.409Z,0
2024-04-03T03:33:02.559Z,0
2024-04-03T03:34:02.710Z,0
2024-04-03T03:35:02.877Z,0
2024-04-03T03:36:03.021Z,0
2024-04-03T03:37:03.161Z,0
2024-04-03T03:38:03.319Z,0
2024-04-03T03:39:03.477Z,0
2024-04-03T03:40:03.622Z,0
2024-04-03T03:41:03.781Z,0
2024-04-03T03:42:03.929Z,0
2024-04-03T03:43:04.075Z,0
2024-04-03T03:44:04.225Z,0
2024-04-03T03:45:04.342Z,0
2024-04-03T03:46:04.501Z,0
2024-04-03T03:47:04.633Z,0
2024-04-03T03:48:04.794Z,0
2024-04-03T03:49:04.950Z,0
2024-04-03T03:50:05.103Z,0
2024-04-03T03:51:05.255Z,0
2024-04-03T03:52:05.398Z,0
2024-04-03T03:53:05.550Z,0
2024-04-03T03:54:07.300Z,0
2024-04-03T03:55:05.846Z,0
2024-04-03T03:56:05.998Z,0
2024-04-03T03:57:06.161Z,0
2024-04-03T03:58:06.303Z,0
2024-04-03T03:59:06.448Z,0
2024-04-03T04:00:06.619Z,0
2024-04-03T04:01:06.773Z,0
2024-04-03T04:02:06.904Z,0
2024-04-03T04:03:07.066Z,0
2024-04-03T04:04:07.222Z,0
2024-04-03T04:05:07.360Z,0
2024-04-03T04:06:07.510Z,0
2024-04-03T04:07:07.673Z,0
2024-04-03T04:08:07.817Z,2
2024-04-03T04:09:08.004Z,2
2024-04-03T04:10:08.093Z,2
2024-04-03T04:11:08.220Z,2
2024-04-03T04:12:08.366Z,2
2024-04-03T04:13:08.524Z,3.04
2024-04-03T04:14:08.668Z,3.04
2024-04-03T04:15:08.822Z,4
2024-04-03T04:16:08.986Z,4
2024-04-03T04:17:09.126Z,5.04
2024-04-03T04:18:09.285Z,6
2024-04-03T04:19:09.431Z,7.04
2024-04-03T04:20:09.589Z,9.04
2024-04-03T04:21:09.747Z,10
2024-04-03T04:22:09.905Z,11.04
2024-04-03T04:23:10.061Z,14
2024-04-03T04:24:10.196Z,16
2024-04-03T04:25:10.340Z,19.04
2024-04-03T04:26:10.492Z,22
2024-04-03T04:27:10.657Z,27.04
2024-04-03T04:28:10.794Z,31.04
2024-04-03T04:29:10.943Z,36
2024-04-03T04:30:11.092Z,43.04
2024-04-03T04:31:11.242Z,51.04
2024-04-03T04:32:11.416Z,59.04
2024-04-03T04:33:11.630Z,70
2024-04-03T04:34:11.654Z,79.04
2024-04-03T04:35:11.881Z,91.04
2024-04-03T04:36:11.958Z,110
2024-04-03T04:37:12.120Z,120
2024-04-03T04:38:12.263Z,140
2024-04-03T04:39:12.412Z,150
2024-04-03T04:40:12.565Z,170.08
2024-04-03T04:41:12.722Z,190.08
2024-04-03T04:42:12.875Z,200
2024-04-03T04:43:13.027Z,220
2024-04-03T04:44:13.170Z,240
2024-04-03T04:45:13.325Z,270.08
2024-04-03T04:46:13.478Z,290.08
2024-04-03T04:47:13.639Z,310.08
2024-04-03T04:48:13.791Z,340.16
2024-04-03T04:49:13.942Z,360
2024-04-03T04:50:14.100Z,390.08
2024-04-03T04:51:14.258Z,420.16
2024-04-03T04:52:14.383Z,440
2024-04-03T04:53:14.540Z,470.08
2024-04-03T04:54:14.684Z,500.16
2024-04-03T04:55:14.834Z,540.16
2024-04-03T04:56:14.992Z,570.24
2024-04-03T04:57:15.145Z,600
2024-04-03T04:58:15.361Z,630.08
2024-04-03T04:59:15.452Z,670.08
2024-04-03T05:00:15.613Z,710.4
2024-04-03T05:01:15.752Z,740.48
2024-04-03T05:02:15.906Z,700.16
2024-04-03T05:03:16.056Z,800
2024-04-03T05:04:16.195Z,800
2024-04-03T05:05:16.362Z,800
2024-04-03T05:06:16.530Z,900.48
2024-04-03T05:07:16.650Z,900.48
2024-04-03T05:08:16.808Z,900.48
2024-04-03T05:09:16.971Z,1000.32
2024-04-03T05:10:17.133Z,1100.16
2024-04-03T05:11:17.267Z,1100.16
2024-04-03T05:12:17.431Z,1200
2024-04-03T05:13:17.599Z,1200
2024-04-03T05:14:17.720Z,1200
2024-04-03T05:15:17.876Z,1300.48
2024-04-03T05:16:18.026Z,1300.48
2024-04-03T05:17:18.162Z,1400.32
2024-04-03T05:18:18.276Z,1500.16
2024-04-03T05:19:18.430Z,1500.16
2024-04-03T05:20:18.575Z,1600
2024-04-03T05:21:18.731Z,1701.12
2024-04-03T05:22:18.896Z,1701.12
2024-04-03T05:23:19.043Z,1800.96
2024-04-03T05:24:19.235Z,1900.8
2024-04-03T05:25:19.342Z,2000.64
2024-04-03T05:26:19.508Z,2200.32
2024-04-03T05:27:19.656Z,2200.32
2024-04-03T05:28:19.794Z,2300.16
2024-04-03T05:29:19.975Z,2400
2024-04-03T05:30:20.131Z,2300.16
2024-04-03T05:31:20.260Z,1500.16
2024-04-03T05:32:20.406Z,1500.16
2024-04-03T05:33:20.562Z,1500.16
2024-04-03T05:34:20.705Z,1500.16
2024-04-03T05:35:20.906Z,1600
2024-04-03T05:36:21.014Z,1701.12
2024-04-03T05:37:21.149Z,1701.12
2024-04-03T05:38:21.315Z,1800.96
2024-04-03T05:39:21.476Z,1900.8
2024-04-03T05:40:21.597Z,1800.96
2024-04-03T05:41:21.758Z,1701.12
2024-04-03T05:42:21.870Z,1701.12
2024-04-03T05:43:22.011Z,1600
2024-04-03T05:44:22.174Z,1600
2024-04-03T05:45:22.347Z,1701.12
2024-04-03T05:46:22.543Z,1900.8
2024-04-03T05:47:22.667Z,2200.32
2024-04-03T05:48:22.860Z,2200.32
2024-04-03T05:49:22.979Z,2200.32
2024-04-03T05:50:23.137Z,2100.48
2024-04-03T05:51:23.280Z,2100.48
2024-04-03T05:52:23.468Z,2200.32
2024-04-03T05:53:23.577Z,2100.48
2024-04-03T05:54:23.744Z,2100.48
2024-04-03T05:55:23.880Z,2100.48
2024-04-03T05:56:24.066Z,2100.48
2024-04-03T05:57:24.187Z,2200.32
2024-04-03T05:58:24.342Z,2300.16
2024-04-03T05:59:24.497Z,2400
2024-04-03T06:00:24.659Z,2600.96
2024-04-03T06:01:24.807Z,2800.64
2024-04-03T06:02:24.950Z,2700.8
2024-04-03T06:03:25.111Z,2501.12
2024-04-03T06:04:25.245Z,2400
2024-04-03T06:05:25.413Z,2300.16
2024-04-03T06:06:25.554Z,2501.12
2024-04-03T06:08:26.159Z,2900.48
2024-04-03T06:10:26.640Z,2600.96
2024-04-03T06:12:26.415Z,2900.48
2024-04-03T06:13:26.559Z,3100.16
2024-04-03T06:14:26.722Z,3302.4
2024-04-03T06:15:26.879Z,3402.24
2024-04-03T06:16:27.023Z,3502.08
2024-04-03T06:17:27.180Z,3200
2024-04-03T06:18:27.333Z,2700.8
2024-04-03T06:19:27.483Z,2700.8
2024-04-03T06:20:27.626Z,2900.48
2024-04-03T06:21:27.780Z,3302.4
2024-04-03T06:22:27.948Z,3302.4
2024-04-03T06:23:28.085Z,3302.4
2024-04-03T06:24:28.228Z,3601.92
2024-04-03T06:25:28.396Z,3801.6
2024-04-03T06:26:28.562Z,3901.44
2024-04-03T06:27:28.696Z,3901.44
2024-04-03T06:28:28.841Z,3601.92
2024-04-03T06:29:28.990Z,3701.76
2024-04-03T06:30:29.153Z,3801.6
2024-04-03T06:31:29.318Z,4101.12
2024-04-03T06:32:29.525Z,4800
2024-04-03T06:33:29.665Z,5002.24
2024-04-03T06:34:29.766Z,4902.4
2024-04-03T06:35:29.906Z,4600.32
2024-04-03T06:36:30.053Z,4400.64
2024-04-03T06:37:30.212Z,4700.16
2024-04-03T06:38:30.358Z,4902.4
2024-04-03T06:39:30.524Z,5102.08
2024-04-03T06:40:30.654Z,5504
2024-04-03T06:41:30.815Z,5703.68
2024-04-03T06:42:30.963Z,5703.68
2024-04-03T06:43:31.111Z,5800.96
2024-04-03T06:44:31.732Z,5903.36
2024-04-03T06:45:31.687Z,6200.32
2024-04-03T06:46:31.520Z,6702.08
2024-04-03T06:47:31.722Z,7004.16
2024-04-03T06:48:31.872Z,7301.12
2024-04-03T06:49:31.991Z,7403.52
2024-04-03T06:50:32.135Z,7500.8
2024-04-03T06:51:32.288Z,7700.48
2024-04-03T06:52:32.433Z,8104.96
2024-04-03T06:53:32.667Z,8104.96
2024-04-03T06:54:32.729Z,7802.88
2024-04-03T06:55:32.896Z,7603.2
2024-04-03T06:56:33.060Z,7301.12
2024-04-03T06:57:33.214Z,7004.16
2024-04-03T06:58:33.347Z,7004.16
2024-04-03T06:59:33.490Z,6901.76
2024-04-03T07:05:34.675Z,7004.16
2024-04-03T07:06:34.402Z,6302.72
2024-04-03T07:07:34.553Z,6502.4
2024-04-03T07:08:34.703Z,6702.08
2024-04-03T07:09:34.855Z,6804.48
2024-04-03T07:10:35.009Z,7004.16
2024-04-03T07:11:35.166Z,7203.84
2024-04-03T07:12:35.316Z,7301.12
2024-04-03T07:13:35.460Z,7301.12
2024-04-03T07:14:35.614Z,6901.76
2024-04-03T07:15:35.769Z,6400
2024-04-03T07:16:35.919Z,6000.64
2024-04-03T07:17:36.070Z,5800.96
2024-04-03T07:19:36.374Z,5601.28
2024-04-03T07:20:36.519Z,5601.28
2024-04-03T07:21:36.681Z,6103.04
2024-04-03T07:22:36.850Z,6502.4
2024-04-03T07:23:36.984Z,6804.48
2024-04-03T07:24:37.080Z,6901.76
2024-04-03T07:25:37.235Z,6901.76
2024-04-03T07:26:37.390Z,6804.48
2024-04-03T07:27:37.536Z,6502.4
2024-04-03T07:28:37.687Z,5903.36
2024-04-03T07:29:37.843Z,5601.28
2024-04-03T07:30:37.945Z,5601.28
2024-04-03T07:31:38.096Z,5800.96
2024-04-03T07:32:38.216Z,5703.68
2024-04-03T07:33:38.351Z,5601.28
2024-04-03T07:34:38.500Z,5703.68
2024-04-03T07:35:38.651Z,5800.96
2024-04-03T07:36:38.808Z,5800.96
2024-04-03T07:37:38.945Z,5800.96
2024-04-03T07:38:39.105Z,5903.36
2024-04-03T07:39:39.263Z,6000.64
2024-04-03T07:40:39.412Z,6400
2024-04-03T07:41:39.553Z,6302.72
2024-04-03T07:42:39.717Z,5703.68
2024-04-03T07:43:39.860Z,5401.6
2024-04-03T07:44:40.046Z,5504
2024-04-03T07:45:40.171Z,5201.92
2024-04-03T07:46:40.266Z,5201.92
2024-04-03T07:47:40.380Z,5102.08
2024-04-03T07:48:40.535Z,5102.08
2024-04-03T07:49:40.676Z,5504
2024-04-03T07:50:40.831Z,5703.68
2024-04-03T07:51:40.980Z,5703.68
2024-04-03T07:52:41.135Z,5601.28
2024-04-03T07:53:41.279Z,5401.6
2024-04-03T07:54:41.439Z,5201.92
2024-04-03T07:55:41.575Z,5102.08
2024-04-03T07:56:41.737Z,5102.08
2024-04-03T07:57:41.879Z,5201.92
2024-04-03T07:58:42.035Z,5304.32
2024-04-03T07:59:42.215Z,5401.6
2024-04-03T08:00:42.299Z,5703.68
2024-04-03T08:01:42.457Z,6000.64
2024-04-03T08:02:43.264Z,6000.64
2024-04-03T08:03:42.751Z,6000.64
2024-04-03T08:04:42.932Z,6000.64
2024-04-03T08:05:43.101Z,5903.36
2024-04-03T08:06:43.209Z,5703.68
2024-04-03T08:07:43.364Z,5703.68
2024-04-03T08:08:44.850Z,5800.96
2024-04-03T08:10:44.687Z,6103.04
2024-04-03T08:12:44.576Z,7004.16
2024-04-03T08:14:44.459Z,7700.48
2024-04-03T08:16:44.766Z,8202.24
2024-04-03T08:17:45.498Z,8304.64
2024-04-03T08:18:45.069Z,8401.92
2024-04-03T08:19:45.810Z,8903.68
2024-04-03T08:21:46.296Z,9502.72
2024-04-03T08:23:46.392Z,9702.399
2024-04-03T08:24:45.984Z,10101.76
2024-04-03T08:26:47.020Z,10700.8
2024-04-03T08:28:47.383Z,10803.2
2024-04-03T08:30:47.506Z,10803.2
2024-04-03T08:35:48.994Z,11407.359
2024-04-03T08:37:53.984Z,11407.359
2024-04-03T08:39:49.521Z,11806.72
2024-04-03T08:41:49.229Z,12206.08
2024-04-03T08:43:48.891Z,12503.04
2024-04-03T08:44:49.006Z,12800
2024-04-03T08:45:49.115Z,13107.199
2024-04-03T08:46:49.255Z,13608.96
2024-04-03T08:47:49.367Z,14305.279
2024-04-03T08:48:49.748Z,14510.08
2024-04-03T08:53:50.559Z,14510.08
2024-04-03T08:54:50.690Z,13803.52
2024-04-03T08:55:51.091Z,13905.92
2024-04-03T08:57:51.352Z,13905.92
2024-04-03T08:59:51.127Z,13905.92
2024-04-03T09:00:51.322Z,13905.92
2024-04-03T09:01:51.404Z,13803.52
2024-04-03T09:02:52.043Z,14008.319
2024-04-03T09:04:51.795Z,12707.84
2024-04-03T09:05:52.734Z,12605.439
2024-04-03T09:07:56.211Z,11704.319
2024-04-03T09:09:53.617Z,11509.76
2024-04-03T09:11:53.665Z,11806.72
2024-04-03T09:13:53.777Z,12503.04
2024-04-03T09:15:53.977Z,13506.56
2024-04-03T09:16:58.421Z,13803.52
2024-04-03T09:17:53.793Z,13905.92
2024-04-03T09:18:53.909Z,13905.92
2024-04-03T09:19:54.077Z,14100.479
2024-04-03T09:20:54.218Z,14202.88
2024-04-03T09:21:54.322Z,14407.68
2024-04-03T09:22:54.488Z,14305.279
2024-04-03T09:23:54.573Z,14100.479
2024-04-03T09:24:54.728Z,14100.479
2024-04-03T09:25:54.904Z,14008.319
2024-04-03T09:26:54.978Z,14602.239
2024-04-03T09:27:56.224Z,15503.359
2024-04-03T09:29:56.251Z,16302.08
2024-04-03T09:31:55.783Z,14305.279
2024-04-03T09:32:55.936Z,13701.12
2024-04-03T09:33:56.092Z,12902.399
2024-04-03T09:34:56.203Z,12605.439
2024-04-03T09:35:56.339Z,13107.199
2024-04-03T09:36:56.499Z,14100.479
2024-04-03T09:37:56.634Z,15206.399
2024-04-03T09:38:56.800Z,16107.52
2024-04-03T09:39:56.942Z,15800.319
2024-04-03T09:40:57.856Z,15104
2024-04-03T09:42:58.181Z,14510.08
2024-04-03T09:43:57.606Z,14909.439
2024-04-03T09:44:58.326Z,14602.239
2024-04-03T09:46:58.625Z,16302.08
2024-04-03T09:48:58.328Z,15605.76
2024-04-03T09:49:58.477Z,16609.28
2024-04-03T09:50:59.074Z,17408
2024-04-03T09:51:58.778Z,16906.24
2024-04-03T09:53:00.044Z,15800.319
2024-04-03T09:55:00.249Z,16609.28
2024-04-03T09:56:59.992Z,12503.04
2024-04-03T09:58:59.735Z,13803.52
2024-04-03T09:59:59.926Z,14909.439
2024-04-03T10:01:00.063Z,12400.64
2024-04-03T10:02:01.184Z,13608.96
2024-04-03T10:03:00.340Z,13905.92
2024-04-03T10:04:00.497Z,13209.6
2024-04-03T10:05:00.654Z,12800
2024-04-03T10:06:00.834Z,12902.399
2024-04-03T10:07:00.955Z,13209.6
2024-04-03T10:08:01.097Z,13905.92
2024-04-03T10:09:01.254Z,15001.6
2024-04-03T10:10:01.404Z,16107.52
2024-04-03T10:11:01.563Z,14704.64
2024-04-03T10:12:01.707Z,14202.88
2024-04-03T10:13:01.865Z,14008.319
2024-04-03T10:14:02.017Z,13905.92
2024-04-03T10:15:02.168Z,14008.319
2024-04-03T10:16:02.330Z,14100.479
2024-04-03T10:17:02.468Z,14008.319
2024-04-03T10:18:02.625Z,14305.279
2024-04-03T10:19:02.774Z,14909.439
2024-04-03T10:20:02.936Z,15800.319
2024-04-03T10:21:03.089Z,16906.24
2024-04-03T10:22:03.228Z,15104
2024-04-03T10:23:03.375Z,15708.159
2024-04-03T10:24:03.535Z,15708.159
2024-04-03T10:25:03.689Z,15902.72
2024-04-03T10:26:03.831Z,15605.76
2024-04-03T10:27:03.983Z,14807.04
2024-04-03T10:28:04.145Z,14305.279
2024-04-03T10:29:04.240Z,14008.319
2024-04-03T10:30:04.388Z,13506.56
2024-04-03T10:32:04.701Z,13506.56
2024-04-03T10:33:04.818Z,14305.279
2024-04-03T10:34:04.999Z,14807.04
2024-04-03T10:35:05.161Z,14305.279
2024-04-03T10:36:05.310Z,15308.8
2024-04-03T10:37:05.453Z,15308.8
2024-04-03T10:38:05.604Z,14704.64
2024-04-03T10:39:05.768Z,14510.08
2024-04-03T10:40:05.907Z,14202.88
2024-04-03T10:41:06.050Z,13905.92
2024-04-03T10:42:06.196Z,13701.12
2024-04-03T10:43:06.360Z,13404.16
2024-04-03T10:44:06.510Z,13107.199
2024-04-03T10:45:06.676Z,13107.199
2024-04-03T10:46:06.834Z,12800
2024-04-03T10:47:06.977Z,12800
2024-04-03T10:48:07.126Z,12400.64
2024-04-03T10:49:07.264Z,12400.64
2024-04-03T10:50:07.415Z,12308.479
2024-04-03T10:51:07.578Z,11909.12
2024-04-03T10:52:07.741Z,11806.72
2024-04-03T10:53:07.882Z,11909.12
2024-04-03T10:54:08.048Z,11909.12
2024-04-03T10:55:08.178Z,11909.12
2024-04-03T10:56:08.339Z,11601.92
2024-04-03T10:57:08.477Z,11407.359
2024-04-03T10:58:08.633Z,11509.76
2024-04-03T10:59:08.795Z,11509.76
2024-04-03T11:00:08.934Z,11509.76
2024-04-03T11:01:09.096Z,11509.76
2024-04-03T11:02:09.251Z,11407.359
2024-04-03T11:03:09.386Z,11202.56
2024-04-03T11:04:09.539Z,10905.6
2024-04-03T11:05:09.717Z,10700.8
2024-04-03T11:06:09.864Z,10608.64
2024-04-03T11:07:10.011Z,10403.84
2024-04-03T11:08:10.162Z,10101.76
2024-04-03T11:09:10.302Z,9902.08
2024-04-03T11:10:10.463Z,10204.16
2024-04-03T11:11:10.624Z,10803.2
2024-04-03T11:12:10.760Z,11601.92
2024-04-03T11:13:10.908Z,12103.68
2024-04-03T11:14:11.055Z,12503.04
2024-04-03T11:15:11.203Z,12800
2024-04-03T11:16:11.379Z,13301.76
2024-04-03T11:17:11.518Z,13608.96
2024-04-03T11:18:11.665Z,13905.92
2024-04-03T11:19:11.826Z,14100.479
2024-04-03T11:20:11.978Z,14305.279
2024-04-03T11:21:12.139Z,14407.68
2024-04-03T11:22:12.271Z,14510.08
2024-04-03T11:23:12.426Z,14602.239
2024-04-03T11:24:12.581Z,14602.239
2024-04-03T11:25:12.746Z,14602.239
2024-04-03T11:26:12.880Z,14407.68
2024-04-03T11:27:13.027Z,14202.88
2024-04-03T11:29:13.338Z,13803.52
2024-04-03T11:30:13.495Z,13608.96
2024-04-03T11:31:13.648Z,13506.56
2024-04-03T11:32:13.786Z,13608.96
2024-04-03T11:33:13.948Z,13506.56
2024-04-03T11:34:14.090Z,13506.56
2024-04-03T11:35:14.241Z,13506.56
2024-04-03T11:36:14.417Z,13404.16
2024-04-03T11:37:14.540Z,13301.76
2024-04-03T11:38:14.689Z,13301.76
2024-04-03T11:39:14.868Z,13209.6
2024-04-03T11:40:15.007Z,13301.76
2024-04-03T11:41:15.166Z,13301.76
2024-04-03T11:42:15.268Z,13404.16
2024-04-03T11:43:15.418Z,13506.56
2024-04-03T11:44:15.578Z,13701.12
2024-04-03T11:45:15.733Z,13701.12
2024-04-03T11:47:16.759Z,13905.92
2024-04-03T11:49:16.315Z,13905.92
2024-04-03T11:50:16.476Z,13905.92
2024-04-03T11:51:17.434Z,14008.319
2024-04-03T11:53:16.941Z,14202.88
2024-04-03T11:54:17.071Z,14202.88
2024-04-03T11:55:17.224Z,14100.479
2024-04-03T11:56:17.388Z,14202.88
2024-04-03T11:57:17.535Z,14202.88
2024-04-03T11:58:17.625Z,14100.479
2024-04-03T11:59:17.783Z,13905.92
2024-04-03T12:00:17.931Z,13701.12
2024-04-03T12:01:18.080Z,13608.96
2024-04-03T12:02:18.257Z,13404.16
2024-04-03T12:03:18.399Z,13404.16
2024-04-03T12:04:18.536Z,13404.16
2024-04-03T12:05:18.706Z,13506.56
2024-04-03T12:06:18.855Z,13404.16
2024-04-03T12:07:18.997Z,13004.8
2024-04-03T12:08:19.144Z,12206.08
2024-04-03T12:09:19.294Z,11806.72
2024-04-03T12:10:19.449Z,11509.76
2024-04-03T12:11:19.616Z,11304.96
2024-04-03T12:12:19.758Z,11202.56
2024-04-03T12:13:19.902Z,10700.8
2024-04-03T12:14:20.050Z,10204.16
2024-04-03T12:15:20.201Z,9702.399
2024-04-03T12:16:20.365Z,9303.04
2024-04-03T12:17:20.544Z,8903.68
2024-04-03T12:18:20.675Z,8401.92
2024-04-03T12:19:20.812Z,8704
2024-04-03T12:20:20.961Z,9200.64
2024-04-03T12:21:21.118Z,9303.04
2024-04-03T12:22:21.289Z,9702.399
2024-04-03T12:23:21.424Z,10101.76
2024-04-03T12:24:21.583Z,10204.16
2024-04-03T12:25:24.390Z,10301.439
2024-04-03T12:26:21.872Z,10301.439
2024-04-03T12:27:22.091Z,10506.24
2024-04-03T12:28:22.178Z,10506.24
2024-04-03T12:29:22.328Z,10403.84
2024-04-03T12:30:22.523Z,10204.16
2024-04-03T12:31:22.635Z,9702.399
2024-04-03T12:32:22.793Z,9400.319
2024-04-03T12:33:22.946Z,9200.64
2024-04-03T12:34:23.042Z,9103.359
2024-04-03T12:35:23.207Z,8903.68
2024-04-03T12:36:34.855Z,8601.6
2024-04-03T12:37:32.964Z,8401.92
2024-04-03T12:38:26.220Z,8202.24
2024-04-03T12:39:23.817Z,7802.88
2024-04-03T12:40:23.982Z,7603.2
2024-04-03T12:41:24.120Z,7403.52
2024-04-03T12:42:24.260Z,7500.8
2024-04-03T12:43:24.417Z,7700.48
2024-04-03T12:44:24.567Z,8002.56
2024-04-03T12:45:24.710Z,8304.64
2024-04-03T12:46:24.889Z,8504.319
2024-04-03T12:47:25.022Z,8601.6
2024-04-03T12:48:25.177Z,8401.92
2024-04-03T12:49:25.315Z,8401.92
2024-04-03T12:50:25.462Z,8304.64
2024-04-03T12:51:25.642Z,8401.92
2024-04-03T12:52:25.729Z,8601.6
2024-04-03T12:53:25.883Z,9200.64
2024-04-03T12:54:26.038Z,10204.16
2024-04-03T12:55:26.179Z,11806.72
2024-04-03T12:56:26.334Z,13209.6
2024-04-03T12:57:26.506Z,14704.64
2024-04-03T12:58:26.628Z,16609.28
2024-04-03T12:59:26.777Z,17807.36
2024-04-03T13:00:27.087Z,17807.36
2024-04-03T13:01:27.094Z,16803.84
2024-04-03T13:02:27.238Z,16803.84
2024-04-03T13:03:27.411Z,16906.24
2024-04-03T13:04:27.542Z,14909.439
2024-04-03T13:05:27.698Z,13701.12
2024-04-03T13:06:27.874Z,13506.56
2024-04-03T13:07:27.996Z,12707.84
2024-04-03T13:08:28.152Z,11806.72
2024-04-03T13:09:28.969Z,11304.96
2024-04-03T13:10:29.109Z,10403.84
2024-04-03T13:12:29.563Z,8304.64
2024-04-03T13:14:29.571Z,8002.56
2024-04-03T13:15:29.874Z,8304.64
2024-04-03T13:17:30.317Z,8002.56
2024-04-03T13:18:30.389Z,8002.56
2024-04-03T13:19:30.601Z,8304.64
2024-04-03T13:20:30.512Z,9000.96
2024-04-03T13:21:30.852Z,9200.64
2024-04-03T13:22:30.721Z,9303.04
2024-04-03T13:23:31.148Z,9502.72
2024-04-03T13:24:30.920Z,9702.399
2024-04-03T13:25:31.519Z,9804.8
2024-04-03T13:27:32.350Z,9400.319
2024-04-03T13:29:32.034Z,8704
2024-04-03T13:31:31.642Z,9200.64
2024-04-03T13:32:31.794Z,9804.8
2024-04-03T13:33:37.239Z,10506.24
2024-04-03T13:34:32.089Z,10700.8
2024-04-03T13:35:32.409Z,10700.8
2024-04-03T13:36:32.428Z,10506.24
2024-04-03T13:37:32.543Z,10204.16
2024-04-03T13:38:32.922Z,9804.8
2024-04-03T13:39:32.875Z,9400.319
2024-04-03T13:40:33.001Z,8704
2024-04-03T13:41:33.150Z,8304.64
2024-04-03T13:42:33.348Z,8104.96
2024-04-03T13:43:33.447Z,8002.56
2024-04-03T13:44:33.694Z,8002.56
2024-04-03T13:45:33.784Z,8002.56
2024-04-03T13:46:33.929Z,8002.56
2024-04-03T13:47:34.098Z,8002.56
2024-04-03T13:48:34.285Z,8104.96
2024-04-03T13:49:34.370Z,8304.64
2024-04-03T13:50:34.503Z,8304.64
2024-04-03T13:51:34.727Z,8401.92
2024-04-03T13:52:34.829Z,8304.64